sensor_id;sensor_type;location;lat;lon;timestamp;P1;durP1;ratioP1;P2;durP2;ratioP2
21569;SDS011;57598;50.888;4.746;2023-04-29T00:01:38;71.95;;;64.28;;
21569;SDS011;57598;50.888;4.746;2023-04-29T00:04:06;92.05;;;74.18;;
21569;SDS011;57598;50.888;4.746;2023-04-29T00:06:33;114.60;;;83.22;;
21569;SDS011;57598;50.888;4.746;2023-04-29T00:09:00;107.25;;;81.78;;
21569;SDS011;57598;50.888;4.746;2023-04-29T00:11:28;94.65;;;74.68;;
21569;SDS011;57598;50.888;4.746;2023-04-29T00:13:55;85.10;;;71.93;;
21569;SDS011;57598;50.888;4.746;2023-04-29T00:16:22;80.07;;;71.40;;
21569;SDS011;57598;50.888;4.746;2023-04-29T00:18:49;100.20;;;77.13;;
21569;SDS011;57598;50.888;4.746;2023-04-29T00:21:18;81.43;;;71.15;;
21569;SDS011;57598;50.888;4.746;2023-04-29T00:23:45;99.80;;;77.00;;
21569;SDS011;57598;50.888;4.746;2023-04-29T00:26:12;72.28;;;65.03;;
21569;SDS011;57598;50.888;4.746;2023-04-29T00:28:39;92.22;;;66.75;;
21569;SDS011;57598;50.888;4.746;2023-04-29T00:31:06;66.20;;;59.63;;
21569;SDS011;57598;50.888;4.746;2023-04-29T00:33:33;93.80;;;75.18;;
21569;SDS011;57598;50.888;4.746;2023-04-29T00:36:00;88.32;;;72.88;;
21569;SDS011;57598;50.888;4.746;2023-04-29T00:38:28;89.57;;;77.57;;
21569;SDS011;57598;50.888;4.746;2023-04-29T00:40:55;88.70;;;73.85;;
21569;SDS011;57598;50.888;4.746;2023-04-29T00:43:22;75.78;;;65.28;;
21569;SDS011;57598;50.888;4.746;2023-04-29T00:45:50;88.30;;;68.53;;
21569;SDS011;57598;50.888;4.746;2023-04-29T00:48:17;74.28;;;65.43;;
21569;SDS011;57598;50.888;4.746;2023-04-29T00:50:43;64.30;;;57.70;;
21569;SDS011;57598;50.888;4.746;2023-04-29T00:53:11;73.32;;;65.57;;
21569;SDS011;57598;50.888;4.746;2023-04-29T00:55:40;93.47;;;75.65;;
21569;SDS011;57598;50.888;4.746;2023-04-29T00:58:08;85.10;;;73.50;;
21569;SDS011;57598;50.888;4.746;2023-04-29T01:00:35;97.78;;;75.72;;
21569;SDS011;57598;50.888;4.746;2023-04-29T01:03:03;82.80;;;68.95;;
21569;SDS011;57598;50.888;4.746;2023-04-29T01:05:31;76.32;;;68.07;;
21569;SDS011;57598;50.888;4.746;2023-04-29T01:08:02;74.70;;;67.15;;
21569;SDS011;57598;50.888;4.746;2023-04-29T01:10:43;78.30;;;70.03;;
21569;SDS011;57598;50.888;4.746;2023-04-29T01:13:21;74.35;;;66.65;;
21569;SDS011;57598;50.888;4.746;2023-04-29T01:15:58;70.43;;;63.00;;
21569;SDS011;57598;50.888;4.746;2023-04-29T01:18:28;104.28;;;72.30;;
21569;SDS011;57598;50.888;4.746;2023-04-29T01:20:58;81.40;;;72.68;;
21569;SDS011;57598;50.888;4.746;2023-04-29T01:23:27;69.45;;;62.40;;
21569;SDS011;57598;50.888;4.746;2023-04-29T01:25:54;86.13;;;70.20;;
21569;SDS011;57598;50.888;4.746;2023-04-29T01:28:25;69.20;;;62.05;;
21569;SDS011;57598;50.888;4.746;2023-04-29T01:31:04;95.60;;;74.93;;
21569;SDS011;57598;50.888;4.746;2023-04-29T01:33:35;79.60;;;69.88;;
21569;SDS011;57598;50.888;4.746;2023-04-29T01:36:11;88.25;;;77.63;;
21569;SDS011;57598;50.888;4.746;2023-04-29T01:38:48;90.00;;;74.10;;
21569;SDS011;57598;50.888;4.746;2023-04-29T01:41:29;88.25;;;73.88;;
21569;SDS011;57598;50.888;4.746;2023-04-29T01:44:01;63.00;;;56.88;;
21569;SDS011;57598;50.888;4.746;2023-04-29T01:46:29;98.18;;;75.65;;
21569;SDS011;57598;50.888;4.746;2023-04-29T01:48:57;105.82;;;81.97;;
21569;SDS011;57598;50.888;4.746;2023-04-29T01:51:24;85.68;;;72.72;;
21569;SDS011;57598;50.888;4.746;2023-04-29T01:53:53;89.35;;;74.97;;
21569;SDS011;57598;50.888;4.746;2023-04-29T01:56:21;92.38;;;75.68;;
21569;SDS011;57598;50.888;4.746;2023-04-29T01:58:48;105.57;;;80.10;;
21569;SDS011;57598;50.888;4.746;2023-04-29T02:01:15;102.20;;;78.30;;
21569;SDS011;57598;50.888;4.746;2023-04-29T02:03:42;72.40;;;64.03;;
21569;SDS011;57598;50.888;4.746;2023-04-29T02:06:09;77.05;;;66.93;;
21569;SDS011;57598;50.888;4.746;2023-04-29T02:08:36;73.57;;;65.80;;
21569;SDS011;57598;50.888;4.746;2023-04-29T02:11:05;67.35;;;60.55;;
21569;SDS011;57598;50.888;4.746;2023-04-29T02:13:32;84.95;;;66.28;;
21569;SDS011;57598;50.888;4.746;2023-04-29T02:16:05;98.25;;;78.82;;
21569;SDS011;57598;50.888;4.746;2023-04-29T02:18:33;88.35;;;69.68;;
21569;SDS011;57598;50.888;4.746;2023-04-29T02:21:00;81.18;;;69.60;;
21569;SDS011;57598;50.888;4.746;2023-04-29T02:23:27;84.28;;;74.55;;
21569;SDS011;57598;50.888;4.746;2023-04-29T02:25:55;81.28;;;68.88;;
21569;SDS011;57598;50.888;4.746;2023-04-29T02:28:23;79.35;;;67.20;;
21569;SDS011;57598;50.888;4.746;2023-04-29T02:30:51;80.97;;;67.95;;
21569;SDS011;57598;50.888;4.746;2023-04-29T02:33:18;71.78;;;64.40;;
21569;SDS011;57598;50.888;4.746;2023-04-29T02:35:45;72.30;;;64.90;;
21569;SDS011;57598;50.888;4.746;2023-04-29T02:38:12;80.65;;;69.65;;
21569;SDS011;57598;50.888;4.746;2023-04-29T02:40:40;86.40;;;72.78;;
21569;SDS011;57598;50.888;4.746;2023-04-29T02:43:08;91.72;;;76.18;;
21569;SDS011;57598;50.888;4.746;2023-04-29T02:45:36;84.45;;;71.82;;
21569;SDS011;57598;50.888;4.746;2023-04-29T02:48:04;83.85;;;70.30;;
21569;SDS011;57598;50.888;4.746;2023-04-29T02:50:31;71.80;;;64.55;;
21569;SDS011;57598;50.888;4.746;2023-04-29T02:52:58;89.15;;;72.85;;
21569;SDS011;57598;50.888;4.746;2023-04-29T02:55:26;82.20;;;71.45;;
21569;SDS011;57598;50.888;4.746;2023-04-29T02:57:53;63.63;;;57.53;;
21569;SDS011;57598;50.888;4.746;2023-04-29T03:00:20;68.05;;;61.00;;
21569;SDS011;57598;50.888;4.746;2023-04-29T03:02:49;78.93;;;70.50;;
21569;SDS011;57598;50.888;4.746;2023-04-29T03:05:16;77.30;;;69.07;;
21569;SDS011;57598;50.888;4.746;2023-04-29T03:07:43;71.47;;;63.80;;
21569;SDS011;57598;50.888;4.746;2023-04-29T03:10:10;75.75;;;65.80;;
21569;SDS011;57598;50.888;4.746;2023-04-29T03:12:37;75.22;;;66.45;;
21569;SDS011;57598;50.888;4.746;2023-04-29T03:15:05;63.97;;;57.55;;
21569;SDS011;57598;50.888;4.746;2023-04-29T03:17:34;62.65;;;56.55;;
21569;SDS011;57598;50.888;4.746;2023-04-29T03:20:03;84.22;;;71.93;;
21569;SDS011;57598;50.888;4.746;2023-04-29T03:22:31;75.35;;;64.90;;
21569;SDS011;57598;50.888;4.746;2023-04-29T03:24:59;76.93;;;68.78;;
21569;SDS011;57598;50.888;4.746;2023-04-29T03:27:26;71.30;;;63.60;;
21569;SDS011;57598;50.888;4.746;2023-04-29T03:29:53;75.03;;;66.90;;
21569;SDS011;57598;50.888;4.746;2023-04-29T03:32:20;69.60;;;62.42;;
21569;SDS011;57598;50.888;4.746;2023-04-29T03:34:47;85.28;;;75.18;;
21569;SDS011;57598;50.888;4.746;2023-04-29T03:37:15;67.38;;;60.33;;
21569;SDS011;57598;50.888;4.746;2023-04-29T03:39:42;66.15;;;59.65;;
21569;SDS011;57598;50.888;4.746;2023-04-29T03:42:09;67.00;;;60.08;;
21569;SDS011;57598;50.888;4.746;2023-04-29T03:44:36;71.85;;;64.50;;
21569;SDS011;57598;50.888;4.746;2023-04-29T03:47:04;65.82;;;59.42;;
21569;SDS011;57598;50.888;4.746;2023-04-29T03:49:31;77.65;;;69.68;;
21569;SDS011;57598;50.888;4.746;2023-04-29T03:51:58;77.47;;;69.05;;
21569;SDS011;57598;50.888;4.746;2023-04-29T03:54:26;77.88;;;69.97;;
21569;SDS011;57598;50.888;4.746;2023-04-29T03:56:53;68.28;;;61.40;;
21569;SDS011;57598;50.888;4.746;2023-04-29T03:59:20;66.40;;;60.15;;
21569;SDS011;57598;50.888;4.746;2023-04-29T04:01:48;69.35;;;62.10;;
21569;SDS011;57598;50.888;4.746;2023-04-29T04:04:15;72.68;;;65.35;;
21569;SDS011;57598;50.888;4.746;2023-04-29T04:06:42;83.95;;;71.57;;
21569;SDS011;57598;50.888;4.746;2023-04-29T04:09:15;81.53;;;68.88;;
21569;SDS011;57598;50.888;4.746;2023-04-29T04:11:43;76.60;;;67.75;;
21569;SDS011;57598;50.888;4.746;2023-04-29T04:14:10;79.43;;;67.03;;
21569;SDS011;57598;50.888;4.746;2023-04-29T04:16:38;96.28;;;77.28;;
21569;SDS011;57598;50.888;4.746;2023-04-29T04:19:05;85.70;;;73.50;;
21569;SDS011;57598;50.888;4.746;2023-04-29T04:21:32;76.10;;;66.47;;
21569;SDS011;57598;50.888;4.746;2023-04-29T04:24:00;64.72;;;58.53;;
21569;SDS011;57598;50.888;4.746;2023-04-29T04:26:27;61.03;;;55.22;;
21569;SDS011;57598;50.888;4.746;2023-04-29T04:28:55;60.20;;;54.35;;
21569;SDS011;57598;50.888;4.746;2023-04-29T04:31:22;60.67;;;54.72;;
21569;SDS011;57598;50.888;4.746;2023-04-29T04:33:49;63.00;;;56.30;;
21569;SDS011;57598;50.888;4.746;2023-04-29T04:36:16;68.15;;;58.97;;
21569;SDS011;57598;50.888;4.746;2023-04-29T04:38:43;61.17;;;55.08;;
21569;SDS011;57598;50.888;4.746;2023-04-29T04:41:10;60.58;;;54.58;;
21569;SDS011;57598;50.888;4.746;2023-04-29T04:43:37;76.15;;;65.20;;
21569;SDS011;57598;50.888;4.746;2023-04-29T04:46:12;76.53;;;67.93;;
21569;SDS011;57598;50.888;4.746;2023-04-29T04:48:40;67.95;;;61.60;;
21569;SDS011;57598;50.888;4.746;2023-04-29T04:51:07;64.53;;;58.28;;
21569;SDS011;57598;50.888;4.746;2023-04-29T04:53:35;62.60;;;56.75;;
21569;SDS011;57598;50.888;4.746;2023-04-29T04:56:02;65.03;;;58.72;;
21569;SDS011;57598;50.888;4.746;2023-04-29T04:58:30;61.13;;;55.42;;
21569;SDS011;57598;50.888;4.746;2023-04-29T05:00:57;59.97;;;54.13;;
21569;SDS011;57598;50.888;4.746;2023-04-29T05:03:25;67.22;;;60.30;;
21569;SDS011;57598;50.888;4.746;2023-04-29T05:05:53;59.92;;;54.15;;
21569;SDS011;57598;50.888;4.746;2023-04-29T05:08:20;63.55;;;57.65;;
21569;SDS011;57598;50.888;4.746;2023-04-29T05:10:47;70.93;;;64.00;;
21569;SDS011;57598;50.888;4.746;2023-04-29T05:13:14;57.45;;;51.95;;
21569;SDS011;57598;50.888;4.746;2023-04-29T05:15:41;59.47;;;53.88;;
21569;SDS011;57598;50.888;4.746;2023-04-29T05:18:08;62.83;;;56.97;;
21569;SDS011;57598;50.888;4.746;2023-04-29T05:20:37;63.80;;;57.90;;
21569;SDS011;57598;50.888;4.746;2023-04-29T05:23:04;73.07;;;65.85;;
21569;SDS011;57598;50.888;4.746;2023-04-29T05:25:31;91.57;;;71.88;;
21569;SDS011;57598;50.888;4.746;2023-04-29T05:27:58;59.45;;;53.95;;
21569;SDS011;57598;50.888;4.746;2023-04-29T05:30:25;59.35;;;53.80;;
21569;SDS011;57598;50.888;4.746;2023-04-29T05:32:52;61.28;;;55.17;;
21569;SDS011;57598;50.888;4.746;2023-04-29T05:35:19;62.58;;;55.20;;
21569;SDS011;57598;50.888;4.746;2023-04-29T05:37:47;62.92;;;56.67;;
21569;SDS011;57598;50.888;4.746;2023-04-29T05:40:14;72.85;;;62.58;;
21569;SDS011;57598;50.888;4.746;2023-04-29T05:42:41;63.45;;;57.22;;
21569;SDS011;57598;50.888;4.746;2023-04-29T05:45:09;61.00;;;55.25;;
21569;SDS011;57598;50.888;4.746;2023-04-29T05:47:36;65.55;;;58.65;;
21569;SDS011;57598;50.888;4.746;2023-04-29T05:50:03;67.50;;;61.00;;
21569;SDS011;57598;50.888;4.746;2023-04-29T05:52:31;66.32;;;60.10;;
21569;SDS011;57598;50.888;4.746;2023-04-29T05:54:59;73.43;;;64.20;;
21569;SDS011;57598;50.888;4.746;2023-04-29T05:57:26;57.58;;;52.10;;
21569;SDS011;57598;50.888;4.746;2023-04-29T05:59:53;72.78;;;59.40;;
21569;SDS011;57598;50.888;4.746;2023-04-29T06:02:20;60.40;;;54.47;;
21569;SDS011;57598;50.888;4.746;2023-04-29T06:04:47;60.80;;;55.33;;
21569;SDS011;57598;50.888;4.746;2023-04-29T06:07:14;60.20;;;54.60;;
21569;SDS011;57598;50.888;4.746;2023-04-29T06:09:43;64.32;;;57.97;;
21569;SDS011;57598;50.888;4.746;2023-04-29T06:12:11;58.88;;;53.60;;
21569;SDS011;57598;50.888;4.746;2023-04-29T06:14:38;66.90;;;59.80;;
21569;SDS011;57598;50.888;4.746;2023-04-29T06:17:05;67.25;;;58.40;;
21569;SDS011;57598;50.888;4.746;2023-04-29T06:19:32;60.63;;;55.13;;
21569;SDS011;57598;50.888;4.746;2023-04-29T06:21:59;58.85;;;53.47;;
21569;SDS011;57598;50.888;4.746;2023-04-29T06:24:26;60.20;;;54.88;;
21569;SDS011;57598;50.888;4.746;2023-04-29T06:26:53;64.97;;;58.75;;
21569;SDS011;57598;50.888;4.746;2023-04-29T06:29:21;60.33;;;54.85;;
21569;SDS011;57598;50.888;4.746;2023-04-29T06:31:48;59.55;;;54.25;;
21569;SDS011;57598;50.888;4.746;2023-04-29T06:34:15;60.40;;;54.95;;
21569;SDS011;57598;50.888;4.746;2023-04-29T06:36:43;63.53;;;57.58;;
21569;SDS011;57598;50.888;4.746;2023-04-29T06:39:10;64.45;;;58.55;;
21569;SDS011;57598;50.888;4.746;2023-04-29T06:41:37;69.05;;;61.85;;
21569;SDS011;57598;50.888;4.746;2023-04-29T06:44:05;59.05;;;53.85;;
21569;SDS011;57598;50.888;4.746;2023-04-29T06:46:33;63.60;;;57.92;;
21569;SDS011;57598;50.888;4.746;2023-04-29T06:49:00;60.63;;;54.85;;
21569;SDS011;57598;50.888;4.746;2023-04-29T06:51:27;61.13;;;55.72;;
21569;SDS011;57598;50.888;4.746;2023-04-29T06:53:56;59.08;;;53.67;;
21569;SDS011;57598;50.888;4.746;2023-04-29T06:56:23;60.97;;;55.53;;
21569;SDS011;57598;50.888;4.746;2023-04-29T06:58:50;59.92;;;54.75;;
21569;SDS011;57598;50.888;4.746;2023-04-29T07:01:17;58.90;;;53.65;;
21569;SDS011;57598;50.888;4.746;2023-04-29T07:03:45;66.78;;;59.90;;
21569;SDS011;57598;50.888;4.746;2023-04-29T07:06:12;60.00;;;54.55;;
21569;SDS011;57598;50.888;4.746;2023-04-29T07:08:39;57.95;;;52.67;;
21569;SDS011;57598;50.888;4.746;2023-04-29T07:11:06;61.63;;;56.00;;
21569;SDS011;57598;50.888;4.746;2023-04-29T07:13:33;61.58;;;55.65;;
21569;SDS011;57598;50.888;4.746;2023-04-29T07:16:00;58.20;;;53.00;;
21569;SDS011;57598;50.888;4.746;2023-04-29T07:18:27;62.72;;;57.08;;
21569;SDS011;57598;50.888;4.746;2023-04-29T07:20:59;59.95;;;54.60;;
21569;SDS011;57598;50.888;4.746;2023-04-29T07:23:26;65.88;;;55.88;;
21569;SDS011;57598;50.888;4.746;2023-04-29T07:25:53;60.40;;;55.00;;
21569;SDS011;57598;50.888;4.746;2023-04-29T07:28:20;62.10;;;56.60;;
21569;SDS011;57598;50.888;4.746;2023-04-29T07:30:47;62.20;;;56.88;;
21569;SDS011;57598;50.888;4.746;2023-04-29T07:33:14;58.25;;;53.13;;
21569;SDS011;57598;50.888;4.746;2023-04-29T07:35:42;58.00;;;52.90;;
21569;SDS011;57598;50.888;4.746;2023-04-29T07:38:10;61.08;;;55.58;;
21569;SDS011;57598;50.888;4.746;2023-04-29T07:40:37;61.72;;;56.22;;
21569;SDS011;57598;50.888;4.746;2023-04-29T07:43:04;58.45;;;53.17;;
21569;SDS011;57598;50.888;4.746;2023-04-29T07:45:33;56.75;;;51.85;;
21569;SDS011;57598;50.888;4.746;2023-04-29T07:48:00;57.70;;;52.80;;
21569;SDS011;57598;50.888;4.746;2023-04-29T07:50:27;59.92;;;54.58;;
21569;SDS011;57598;50.888;4.746;2023-04-29T07:52:54;57.40;;;52.40;;
21569;SDS011;57598;50.888;4.746;2023-04-29T07:55:23;59.72;;;54.53;;
21569;SDS011;57598;50.888;4.746;2023-04-29T07:57:51;56.92;;;51.92;;
21569;SDS011;57598;50.888;4.746;2023-04-29T08:00:18;57.28;;;52.38;;
21569;SDS011;57598;50.888;4.746;2023-04-29T08:02:45;54.88;;;50.35;;
21569;SDS011;57598;50.888;4.746;2023-04-29T08:05:16;53.80;;;49.30;;
21569;SDS011;57598;50.888;4.746;2023-04-29T08:07:43;59.13;;;54.08;;
21569;SDS011;57598;50.888;4.746;2023-04-29T08:10:10;52.08;;;47.80;;
21569;SDS011;57598;50.888;4.746;2023-04-29T08:12:38;59.90;;;54.20;;
21569;SDS011;57598;50.888;4.746;2023-04-29T08:15:05;51.75;;;47.55;;
21569;SDS011;57598;50.888;4.746;2023-04-29T08:17:33;53.38;;;49.17;;
21569;SDS011;57598;50.888;4.746;2023-04-29T08:20:00;54.85;;;50.42;;
21569;SDS011;57598;50.888;4.746;2023-04-29T08:22:27;51.45;;;47.40;;
21569;SDS011;57598;50.888;4.746;2023-04-29T08:24:54;57.88;;;53.13;;
21569;SDS011;57598;50.888;4.746;2023-04-29T08:27:21;54.47;;;50.28;;
21569;SDS011;57598;50.888;4.746;2023-04-29T08:29:50;52.95;;;48.78;;
21569;SDS011;57598;50.888;4.746;2023-04-29T08:32:17;55.88;;;51.28;;
21569;SDS011;57598;50.888;4.746;2023-04-29T08:34:44;57.63;;;52.63;;
21569;SDS011;57598;50.888;4.746;2023-04-29T08:37:11;52.92;;;48.83;;
21569;SDS011;57598;50.888;4.746;2023-04-29T08:39:39;54.65;;;50.13;;
21569;SDS011;57598;50.888;4.746;2023-04-29T08:42:07;53.75;;;49.72;;
21569;SDS011;57598;50.888;4.746;2023-04-29T08:44:34;53.85;;;49.75;;
21569;SDS011;57598;50.888;4.746;2023-04-29T08:47:03;55.47;;;51.05;;
21569;SDS011;57598;50.888;4.746;2023-04-29T08:49:31;54.17;;;50.08;;
21569;SDS011;57598;50.888;4.746;2023-04-29T08:51:58;62.85;;;57.15;;
21569;SDS011;57598;50.888;4.746;2023-04-29T08:54:26;52.65;;;48.75;;
21569;SDS011;57598;50.888;4.746;2023-04-29T08:56:53;56.95;;;52.47;;
21569;SDS011;57598;50.888;4.746;2023-04-29T08:59:22;58.35;;;53.42;;
21569;SDS011;57598;50.888;4.746;2023-04-29T09:01:50;64.05;;;58.30;;
21569;SDS011;57598;50.888;4.746;2023-04-29T09:04:28;57.55;;;53.25;;
21569;SDS011;57598;50.888;4.746;2023-04-29T09:06:59;59.00;;;54.20;;
21569;SDS011;57598;50.888;4.746;2023-04-29T09:09:27;66.68;;;60.55;;
21569;SDS011;57598;50.888;4.746;2023-04-29T09:11:55;52.58;;;48.47;;
21569;SDS011;57598;50.888;4.746;2023-04-29T09:14:22;59.03;;;54.05;;
21569;SDS011;57598;50.888;4.746;2023-04-29T09:16:49;58.25;;;52.53;;
21569;SDS011;57598;50.888;4.746;2023-04-29T09:19:30;59.33;;;53.88;;
21569;SDS011;57598;50.888;4.746;2023-04-29T09:21:58;53.33;;;49.25;;
21569;SDS011;57598;50.888;4.746;2023-04-29T09:24:26;55.63;;;51.03;;
21569;SDS011;57598;50.888;4.746;2023-04-29T09:26:55;50.75;;;46.95;;
21569;SDS011;57598;50.888;4.746;2023-04-29T09:29:23;51.33;;;47.53;;
21569;SDS011;57598;50.888;4.746;2023-04-29T09:31:50;49.33;;;45.65;;
21569;SDS011;57598;50.888;4.746;2023-04-29T09:34:29;49.28;;;45.58;;
21569;SDS011;57598;50.888;4.746;2023-04-29T09:36:59;48.10;;;44.70;;
21569;SDS011;57598;50.888;4.746;2023-04-29T09:39:26;50.45;;;46.42;;
21569;SDS011;57598;50.888;4.746;2023-04-29T09:42:03;48.53;;;44.88;;
21569;SDS011;57598;50.888;4.746;2023-04-29T09:44:32;54.90;;;49.75;;
21569;SDS011;57598;50.888;4.746;2023-04-29T09:47:01;47.70;;;44.50;;
21569;SDS011;57598;50.888;4.746;2023-04-29T09:49:32;48.95;;;45.20;;
21569;SDS011;57598;50.888;4.746;2023-04-29T09:52:02;43.13;;;40.42;;
21569;SDS011;57598;50.888;4.746;2023-04-29T09:54:30;45.78;;;42.63;;
21569;SDS011;57598;50.888;4.746;2023-04-29T09:56:58;41.97;;;39.05;;
21569;SDS011;57598;50.888;4.746;2023-04-29T09:59:30;41.17;;;38.65;;
21569;SDS011;57598;50.888;4.746;2023-04-29T10:02:00;41.03;;;38.53;;
21569;SDS011;57598;50.888;4.746;2023-04-29T10:04:33;39.15;;;36.83;;
21569;SDS011;57598;50.888;4.746;2023-04-29T10:07:03;39.15;;;36.75;;
21569;SDS011;57598;50.888;4.746;2023-04-29T10:09:33;39.55;;;37.22;;
21569;SDS011;57598;50.888;4.746;2023-04-29T10:12:02;40.83;;;38.33;;
21569;SDS011;57598;50.888;4.746;2023-04-29T10:14:34;43.47;;;40.50;;
21569;SDS011;57598;50.888;4.746;2023-04-29T10:17:09;39.95;;;37.53;;
21569;SDS011;57598;50.888;4.746;2023-04-29T10:32:18;39.80;;;37.40;;
21569;SDS011;57598;50.888;4.746;2023-04-29T10:34:47;40.28;;;37.88;;
21569;SDS011;57598;50.888;4.746;2023-04-29T10:37:17;38.60;;;36.40;;
21569;SDS011;57598;50.888;4.746;2023-04-29T10:39:45;42.38;;;39.65;;
21569;SDS011;57598;50.888;4.746;2023-04-29T11:03:09;36.75;;;34.45;;
21569;SDS011;57598;50.888;4.746;2023-04-29T11:06:12;34.83;;;32.83;;
21569;SDS011;57598;50.888;4.746;2023-04-29T11:08:39;35.97;;;33.85;;
21569;SDS011;57598;50.888;4.746;2023-04-29T11:11:07;41.28;;;38.67;;
21569;SDS011;57598;50.888;4.746;2023-04-29T11:13:37;39.75;;;36.85;;
21569;SDS011;57598;50.888;4.746;2023-04-29T11:16:05;35.17;;;33.08;;
21569;SDS011;57598;50.888;4.746;2023-04-29T11:18:34;37.15;;;34.88;;
21569;SDS011;57598;50.888;4.746;2023-04-29T11:21:11;38.05;;;35.63;;
21569;SDS011;57598;50.888;4.746;2023-04-29T11:23:39;38.38;;;35.67;;
21569;SDS011;57598;50.888;4.746;2023-04-29T11:26:06;35.25;;;33.20;;
21569;SDS011;57598;50.888;4.746;2023-04-29T11:28:34;33.60;;;31.60;;
21569;SDS011;57598;50.888;4.746;2023-04-29T11:31:01;34.58;;;32.47;;
21569;SDS011;57598;50.888;4.746;2023-04-29T11:33:30;37.05;;;33.92;;
21569;SDS011;57598;50.888;4.746;2023-04-29T11:35:59;33.00;;;31.10;;
21569;SDS011;57598;50.888;4.746;2023-04-29T11:38:26;34.75;;;32.28;;
21569;SDS011;57598;50.888;4.746;2023-04-29T11:40:54;31.52;;;29.42;;
21569;SDS011;57598;50.888;4.746;2023-04-29T11:43:22;38.53;;;35.30;;
21569;SDS011;57598;50.888;4.746;2023-04-29T11:45:50;28.80;;;26.95;;
21569;SDS011;57598;50.888;4.746;2023-04-29T11:48:17;28.55;;;26.85;;
21569;SDS011;57598;50.888;4.746;2023-04-29T11:50:44;29.20;;;27.52;;
21569;SDS011;57598;50.888;4.746;2023-04-29T11:53:13;32.30;;;29.95;;
21569;SDS011;57598;50.888;4.746;2023-04-29T11:55:41;32.65;;;30.45;;
21569;SDS011;57598;50.888;4.746;2023-04-29T11:58:08;27.73;;;26.15;;
21569;SDS011;57598;50.888;4.746;2023-04-29T12:00:35;28.00;;;26.30;;
21569;SDS011;57598;50.888;4.746;2023-04-29T12:03:06;30.60;;;28.45;;
21569;SDS011;57598;50.888;4.746;2023-04-29T12:05:38;32.65;;;30.20;;
21569;SDS011;57598;50.888;4.746;2023-04-29T12:08:05;32.88;;;28.15;;
21569;SDS011;57598;50.888;4.746;2023-04-29T12:10:35;28.48;;;26.88;;
21569;SDS011;57598;50.888;4.746;2023-04-29T12:13:02;27.92;;;26.23;;
21569;SDS011;57598;50.888;4.746;2023-04-29T12:15:29;31.27;;;28.98;;
21569;SDS011;57598;50.888;4.746;2023-04-29T12:17:57;29.42;;;27.63;;
21569;SDS011;57598;50.888;4.746;2023-04-29T12:20:25;29.90;;;27.98;;
21569;SDS011;57598;50.888;4.746;2023-04-29T12:22:53;27.50;;;26.00;;
21569;SDS011;57598;50.888;4.746;2023-04-29T12:25:23;25.65;;;24.25;;
21569;SDS011;57598;50.888;4.746;2023-04-29T12:27:57;26.83;;;25.33;;
21569;SDS011;57598;50.888;4.746;2023-04-29T12:30:25;26.98;;;25.17;;
21569;SDS011;57598;50.888;4.746;2023-04-29T12:32:52;32.33;;;29.88;;
21569;SDS011;57598;50.888;4.746;2023-04-29T12:35:19;28.08;;;26.48;;
21569;SDS011;57598;50.888;4.746;2023-04-29T12:37:47;28.67;;;26.98;;
21569;SDS011;57598;50.888;4.746;2023-04-29T12:40:15;25.20;;;23.80;;
21569;SDS011;57598;50.888;4.746;2023-04-29T12:42:44;28.10;;;26.50;;
21569;SDS011;57598;50.888;4.746;2023-04-29T12:45:25;30.50;;;28.33;;
21569;SDS011;57598;50.888;4.746;2023-04-29T12:47:54;26.23;;;24.73;;
21569;SDS011;57598;50.888;4.746;2023-04-29T12:50:27;27.70;;;26.10;;
21569;SDS011;57598;50.888;4.746;2023-04-29T12:52:58;30.02;;;28.13;;
21569;SDS011;57598;50.888;4.746;2023-04-29T12:55:26;27.88;;;26.17;;
21569;SDS011;57598;50.888;4.746;2023-04-29T12:57:53;29.95;;;28.15;;
21569;SDS011;57598;50.888;4.746;2023-04-29T13:00:20;28.08;;;26.48;;
21569;SDS011;57598;50.888;4.746;2023-04-29T13:02:48;29.27;;;27.38;;
21569;SDS011;57598;50.888;4.746;2023-04-29T13:05:16;29.58;;;27.70;;
21569;SDS011;57598;50.888;4.746;2023-04-29T13:07:42;25.40;;;24.00;;
21569;SDS011;57598;50.888;4.746;2023-04-29T13:10:10;25.35;;;23.95;;
21569;SDS011;57598;50.888;4.746;2023-04-29T13:12:37;27.20;;;25.50;;
21569;SDS011;57598;50.888;4.746;2023-04-29T13:15:05;25.02;;;23.63;;
21569;SDS011;57598;50.888;4.746;2023-04-29T13:17:33;23.88;;;22.58;;
21569;SDS011;57598;50.888;4.746;2023-04-29T13:20:02;24.80;;;23.30;;
21569;SDS011;57598;50.888;4.746;2023-04-29T13:22:30;24.73;;;23.33;;
21569;SDS011;57598;50.888;4.746;2023-04-29T13:24:57;25.02;;;23.63;;
21569;SDS011;57598;50.888;4.746;2023-04-29T13:27:24;24.50;;;23.10;;
21569;SDS011;57598;50.888;4.746;2023-04-29T13:29:51;23.95;;;22.65;;
21569;SDS011;57598;50.888;4.746;2023-04-29T13:32:18;23.77;;;22.42;;
21569;SDS011;57598;50.888;4.746;2023-04-29T13:34:47;26.85;;;24.77;;
21569;SDS011;57598;50.888;4.746;2023-04-29T13:37:16;27.58;;;25.77;;
21569;SDS011;57598;50.888;4.746;2023-04-29T13:39:43;24.55;;;23.15;;
21569;SDS011;57598;50.888;4.746;2023-04-29T13:42:10;24.75;;;23.35;;
21569;SDS011;57598;50.888;4.746;2023-04-29T13:44:37;27.55;;;25.52;;
21569;SDS011;57598;50.888;4.746;2023-04-29T13:47:08;24.15;;;22.85;;
21569;SDS011;57598;50.888;4.746;2023-04-29T13:49:36;23.50;;;22.20;;
21569;SDS011;57598;50.888;4.746;2023-04-29T13:52:04;24.98;;;23.50;;
21569;SDS011;57598;50.888;4.746;2023-04-29T13:54:33;25.33;;;23.83;;
21569;SDS011;57598;50.888;4.746;2023-04-29T13:57:00;23.73;;;22.42;;
21569;SDS011;57598;50.888;4.746;2023-04-29T13:59:28;24.08;;;22.52;;
21569;SDS011;57598;50.888;4.746;2023-04-29T14:01:55;27.08;;;24.98;;
21569;SDS011;57598;50.888;4.746;2023-04-29T14:04:22;26.67;;;24.98;;
21569;SDS011;57598;50.888;4.746;2023-04-29T14:06:49;23.73;;;22.23;;
21569;SDS011;57598;50.888;4.746;2023-04-29T14:09:17;22.95;;;21.65;;
21569;SDS011;57598;50.888;4.746;2023-04-29T14:11:45;27.83;;;26.00;;
21569;SDS011;57598;50.888;4.746;2023-04-29T14:14:12;22.40;;;21.10;;
21569;SDS011;57598;50.888;4.746;2023-04-29T14:16:39;23.83;;;22.33;;
21569;SDS011;57598;50.888;4.746;2023-04-29T14:19:06;27.10;;;24.98;;
21569;SDS011;57598;50.888;4.746;2023-04-29T14:21:33;29.08;;;26.67;;
21569;SDS011;57598;50.888;4.746;2023-04-29T14:24:01;22.65;;;21.35;;
21569;SDS011;57598;50.888;4.746;2023-04-29T14:26:28;27.42;;;25.75;;
21569;SDS011;57598;50.888;4.746;2023-04-29T14:28:57;24.45;;;23.05;;
21569;SDS011;57598;50.888;4.746;2023-04-29T14:31:25;22.50;;;21.20;;
21569;SDS011;57598;50.888;4.746;2023-04-29T14:33:53;22.90;;;21.60;;
21569;SDS011;57598;50.888;4.746;2023-04-29T14:36:20;23.45;;;22.15;;
21569;SDS011;57598;50.888;4.746;2023-04-29T14:38:47;22.65;;;21.35;;
21569;SDS011;57598;50.888;4.746;2023-04-29T14:41:14;24.50;;;23.10;;
21569;SDS011;57598;50.888;4.746;2023-04-29T14:43:41;23.58;;;22.27;;
21569;SDS011;57598;50.888;4.746;2023-04-29T14:46:09;26.60;;;25.00;;
21569;SDS011;57598;50.888;4.746;2023-04-29T14:48:36;27.20;;;25.25;;
21569;SDS011;57598;50.888;4.746;2023-04-29T14:51:04;24.42;;;22.98;;
21569;SDS011;57598;50.888;4.746;2023-04-29T14:53:31;26.13;;;24.40;;
21569;SDS011;57598;50.888;4.746;2023-04-29T14:55:59;23.75;;;22.45;;
21569;SDS011;57598;50.888;4.746;2023-04-29T14:58:26;24.00;;;22.70;;
21569;SDS011;57598;50.888;4.746;2023-04-29T15:00:52;24.40;;;23.00;;